Wallingford, Connecticut
Current Conditions -  °F | °C
As of 9:12 PM on Wednesday 26 Nov 2014 (Local Time) from KMMK Reporting Station
Light Snow Light Snow  
Wind Chill: 25°   Ceiling: 1500
Heat Index: 35°   Visibility: 3mi
Dew Point: 31°   Wind: 16mph
Humidity: 85%   Direction: 340°NNW
Pressure: 29.75"   Gusts: 29mph
Location:  41.46°N, 72.82°W
Report Text: KMMK 270212Z AUTO 34014G25KT 3SM -SN BR BKN015 OVC020 02/M01 A2975 RMK AO2 RAE0159SNB0159 P0000 T00171006 TSNO
Loading
Personal Weather Stations






























Interactive Weather Map New forecast layout! Learn more

10-Day Weather Forecast

Advertisements
Track Severe Weather on mobile